createdAt,value
2023-01-17T00:01:46.625Z,97154.69
2023-01-17T00:04:32.023Z,97154.00
2023-01-17T00:07:16.914Z,97154.44
2023-01-17T00:09:57.048Z,97150.50
2023-01-17T00:12:29.556Z,97137.94
2023-01-17T00:14:57.800Z,97143.78
2023-01-17T00:17:26.538Z,97147.28
2023-01-17T00:20:12.026Z,97133.84
2023-01-17T00:22:57.315Z,97139.59
2023-01-17T00:25:55.991Z,97142.66
2023-01-17T00:28:23.624Z,97142.00
2023-01-17T00:30:50.494Z,97140.88
2023-01-17T00:33:17.335Z,97141.78
2023-01-17T00:35:43.955Z,97145.06
2023-01-17T00:38:16.399Z,97143.56
2023-01-17T00:40:44.956Z,97145.53
2023-01-17T00:43:31.851Z,97140.44
2023-01-17T00:46:17.258Z,97136.69
2023-01-17T00:49:02.529Z,97143.47
2023-01-17T00:51:49.284Z,97139.88
2023-01-17T00:54:35.280Z,97144.09
2023-01-17T00:57:21.204Z,97138.81
2023-01-17T01:00:07.410Z,97140.09
2023-01-17T01:02:53.406Z,97137.00
2023-01-17T01:05:39.257Z,97139.94
2023-01-17T01:08:39.559Z,97140.97
2023-01-17T01:11:29.973Z,97139.94
2023-01-17T01:14:15.551Z,97135.41
2023-01-17T01:17:00.533Z,97134.44
2023-01-17T01:19:45.749Z,97134.09
2023-01-17T01:22:31.021Z,97125.00
2023-01-17T01:25:16.169Z,97128.63
2023-01-17T01:28:01.429Z,97125.47
2023-01-17T01:30:46.722Z,97122.56
2023-01-17T01:33:21.051Z,97119.06
2023-01-17T01:35:50.137Z,97116.97
2023-01-17T01:38:21.620Z,97124.47
2023-01-17T01:40:53.006Z,97114.28
2023-01-17T01:43:39.146Z,97117.56
2023-01-17T01:46:07.007Z,97119.09
2023-01-17T01:48:33.748Z,97120.72
2023-01-17T01:51:04.116Z,97120.59
2023-01-17T01:53:34.746Z,97116.88
2023-01-17T01:56:03.476Z,97115.59
2023-01-17T01:58:34.171Z,97118.28
2023-01-17T02:01:01.114Z,97114.56
2023-01-17T02:03:30.449Z,97109.56
2023-01-17T02:06:04.376Z,97116.09
2023-01-17T02:08:31.505Z,97109.06
2023-01-17T02:10:58.359Z,97117.72
2023-01-17T02:13:25.035Z,97118.16
2023-01-17T02:16:04.382Z,97118.63
2023-01-17T02:19:04.454Z,97124.38
2023-01-17T02:21:51.745Z,97125.09
2023-01-17T02:24:37.819Z,97125.78
2023-01-17T02:27:10.292Z,97119.81
2023-01-17T02:29:45.640Z,97119.72
2023-01-17T02:32:24.044Z,97121.94
2023-01-17T02:35:03.019Z,97108.53
2023-01-17T02:37:58.414Z,97119.13
2023-01-17T02:40:39.085Z,97122.53
2023-01-17T02:43:10.803Z,97121.47
2023-01-17T02:45:37.553Z,97123.78
2023-01-17T02:48:08.181Z,97116.78
2023-01-17T02:50:45.964Z,97123.31
2023-01-17T02:53:29.993Z,97120.84
2023-01-17T02:56:13.553Z,97122.97
2023-01-17T02:58:58.858Z,97122.94
2023-01-17T03:01:35.293Z,97127.28
2023-01-17T03:04:15.174Z,97131.72
2023-01-17T03:06:48.903Z,97125.75
2023-01-17T03:09:17.978Z,97119.94
2023-01-17T03:11:45.314Z,97119.09
2023-01-17T03:14:12.539Z,97117.13
2023-01-17T03:16:39.897Z,97114.56
2023-01-17T03:19:06.585Z,97113.38
2023-01-17T03:21:33.188Z,97121.88
2023-01-17T03:23:59.896Z,97123.16
2023-01-17T03:26:26.571Z,97123.03
2023-01-17T03:28:53.387Z,97114.91
2023-01-17T03:31:20.210Z,97112.22
2023-01-17T03:33:47.021Z,97107.19
2023-01-17T03:36:13.722Z,97111.41
2023-01-17T03:38:41.534Z,97109.53
2023-01-17T03:41:08.368Z,97101.72
2023-01-17T03:43:35.020Z,97099.63
2023-01-17T03:46:04.210Z,97101.81
2023-01-17T03:48:31.052Z,97099.81
2023-01-17T03:50:57.742Z,97102.19
2023-01-17T03:53:24.461Z,97100.19
2023-01-17T03:55:51.107Z,97103.09
2023-01-17T03:58:17.778Z,97103.09
2023-01-17T04:00:44.389Z,97098.88
2023-01-17T04:03:10.983Z,97096.94
2023-01-17T04:05:37.574Z,97111.09
2023-01-17T04:08:04.489Z,97103.75
2023-01-17T04:10:31.121Z,97103.06
2023-01-17T04:12:57.729Z,97106.22
2023-01-17T04:15:24.378Z,97103.75
2023-01-17T04:17:51.099Z,97107.13
2023-01-17T04:20:29.583Z,97105.94
2023-01-17T04:22:56.285Z,97103.25
2023-01-17T04:25:23.231Z,97108.16
2023-01-17T04:27:49.863Z,97109.22
2023-01-17T04:30:16.546Z,97106.41
2023-01-17T04:32:43.216Z,97108.63
2023-01-17T04:35:10.023Z,97101.50
2023-01-17T04:37:37.000Z,97101.50
2023-01-17T04:40:05.113Z,97098.09
2023-01-17T04:42:32.049Z,97109.97
2023-01-17T04:44:58.678Z,97107.50
2023-01-17T04:47:25.334Z,97100.31
2023-01-17T04:49:52.162Z,97105.69
2023-01-17T04:52:19.826Z,97105.31
2023-01-17T04:54:49.630Z,97102.44
2023-01-17T04:57:17.637Z,97102.88
2023-01-17T04:59:44.653Z,97098.47
2023-01-17T05:02:12.022Z,97104.63
2023-01-17T05:04:38.940Z,97105.09
2023-01-17T05:07:06.179Z,97105.44
2023-01-17T05:09:32.992Z,97109.59
2023-01-17T05:11:59.694Z,97107.97
2023-01-17T05:14:26.478Z,97113.47
2023-01-17T05:16:54.304Z,97114.16
2023-01-17T05:19:21.242Z,97104.59
2023-01-17T05:21:47.867Z,97112.28
2023-01-17T05:24:14.490Z,97116.22
2023-01-17T05:26:43.123Z,97122.72
2023-01-17T05:29:10.613Z,97127.03
2023-01-17T05:31:38.122Z,97124.03
2023-01-17T05:34:04.827Z,97129.25
2023-01-17T05:36:31.440Z,97127.03
2023-01-17T05:38:58.090Z,97121.28
2023-01-17T05:41:24.779Z,97129.44
2023-01-17T05:43:51.437Z,97125.03
2023-01-17T05:46:18.731Z,97125.09
2023-01-17T05:48:45.348Z,97131.06
2023-01-17T05:51:12.038Z,97126.88
2023-01-17T05:53:38.724Z,97137.34
2023-01-17T05:56:05.545Z,97136.03
2023-01-17T05:58:32.135Z,97129.63
2023-01-17T06:00:59.065Z,97128.00
2023-01-17T06:03:25.936Z,97133.78
2023-01-17T06:05:52.599Z,97130.25
2023-01-17T06:08:19.208Z,97129.88
2023-01-17T06:10:45.839Z,97134.16
2023-01-17T06:13:15.328Z,97134.59
2023-01-17T06:15:42.503Z,97129.72
2023-01-17T06:18:11.978Z,97132.84
2023-01-17T06:20:39.661Z,97134.59
2023-01-17T06:23:08.926Z,97126.75
2023-01-17T06:25:44.615Z,97140.28
2023-01-17T06:28:13.698Z,97130.97
2023-01-17T06:30:40.965Z,97136.72
2023-01-17T06:33:07.795Z,97139.16
2023-01-17T06:35:34.403Z,97140.63
2023-01-17T06:38:01.128Z,97143.53
2023-01-17T06:40:30.232Z,97137.91
2023-01-17T06:43:02.019Z,97144.44
2023-01-17T06:45:29.979Z,97145.56
2023-01-17T06:47:58.668Z,97140.28
2023-01-17T06:50:26.034Z,97138.72
2023-01-17T06:53:01.982Z,97143.41
2023-01-17T06:55:30.991Z,97145.50
2023-01-17T06:57:59.582Z,97140.06
2023-01-17T07:00:27.573Z,97147.19
2023-01-17T07:02:54.766Z,97147.56
2023-01-17T07:05:21.828Z,97147.72
2023-01-17T07:07:48.745Z,97149.66
2023-01-17T07:10:16.263Z,97157.88
2023-01-17T07:12:42.985Z,97162.44
2023-01-17T07:15:10.458Z,97162.56
2023-01-17T07:17:37.575Z,97170.16
2023-01-17T07:20:04.658Z,97172.41
2023-01-17T07:22:31.298Z,97168.06
2023-01-17T07:25:00.759Z,97168.59
2023-01-17T07:27:30.462Z,97170.44
2023-01-17T07:29:57.950Z,97167.94
2023-01-17T07:32:26.629Z,97167.06
2023-01-17T07:34:54.003Z,97172.41
2023-01-17T07:37:20.702Z,97165.91
2023-01-17T07:39:47.332Z,97164.81
2023-01-17T07:42:13.913Z,97162.38
2023-01-17T07:44:43.957Z,97167.25
2023-01-17T07:47:11.331Z,97167.19
2023-01-17T07:49:38.068Z,97173.88
2023-01-17T07:52:07.536Z,97169.59
2023-01-17T07:54:34.483Z,97181.91
2023-01-17T07:57:01.599Z,97185.69
2023-01-17T07:59:28.469Z,97184.59
2023-01-17T08:01:55.278Z,97189.50
2023-01-17T08:04:25.708Z,97188.91
2023-01-17T08:06:52.460Z,97189.56
2023-01-17T08:09:19.080Z,97198.03
2023-01-17T08:11:45.699Z,97199.31
2023-01-17T08:14:16.001Z,97202.19
2023-01-17T08:16:42.877Z,97204.66
2023-01-17T08:19:10.432Z,97206.81
2023-01-17T08:21:37.247Z,97206.38
2023-01-17T08:24:04.203Z,97204.88
2023-01-17T08:26:30.827Z,97202.03
2023-01-17T08:29:01.970Z,97200.56
2023-01-17T08:31:30.710Z,97209.06
2023-01-17T08:33:57.514Z,97205.56
2023-01-17T08:36:28.998Z,97215.22
2023-01-17T08:38:55.868Z,97205.91
2023-01-17T08:41:24.332Z,97208.69
2023-01-17T08:43:52.741Z,97200.78
2023-01-17T08:46:19.886Z,97206.38
2023-01-17T08:48:47.457Z,97204.06
2023-01-17T08:51:14.176Z,97206.91
2023-01-17T08:53:40.872Z,97218.03
2023-01-17T08:56:07.783Z,97214.09
2023-01-17T08:58:35.894Z,97214.25
2023-01-17T09:01:04.484Z,97224.38
2023-01-17T09:03:32.377Z,97231.00
2023-01-17T09:06:08.525Z,97223.81
2023-01-17T09:08:36.136Z,97224.66
2023-01-17T09:11:07.676Z,97228.06
2023-01-17T09:13:34.826Z,97224.94
2023-01-17T09:16:01.914Z,97227.97
2023-01-17T09:18:30.740Z,97233.72
2023-01-17T09:20:59.310Z,97232.78
2023-01-17T09:23:29.979Z,97232.78
2023-01-17T09:25:58.798Z,97236.63
2023-01-17T09:28:27.104Z,97233.50
2023-01-17T09:30:55.699Z,97244.59
2023-01-17T09:33:25.409Z,97243.34
2023-01-17T09:35:52.054Z,97241.16
2023-01-17T09:38:21.887Z,97251.78
2023-01-17T09:40:50.685Z,97261.63
2023-01-17T09:43:23.456Z,97254.28
2023-01-17T09:45:50.350Z,97252.88
2023-01-17T09:48:32.349Z,97258.84
2023-01-17T09:51:08.168Z,97264.72
2023-01-17T09:53:37.651Z,97262.50
2023-01-17T09:56:14.225Z,97272.91
2023-01-17T09:59:02.934Z,97274.66
2023-01-17T10:01:47.255Z,97271.38
2023-01-17T10:04:32.978Z,97269.06
2023-01-17T10:07:27.609Z,97269.75
2023-01-17T10:10:06.015Z,97265.28
2023-01-17T10:12:35.763Z,97273.19
2023-01-17T10:15:34.887Z,97280.28
2023-01-17T10:18:32.961Z,97290.75
2023-01-17T10:21:05.637Z,97290.47
2023-01-17T10:24:16.630Z,97287.16
2023-01-17T10:26:49.998Z,97289.69
2023-01-17T10:29:20.951Z,97289.31
2023-01-17T10:32:00.913Z,97295.25
2023-01-17T10:34:35.980Z,97296.41
2023-01-17T10:37:18.418Z,97289.00
2023-01-17T10:39:48.442Z,97293.66
2023-01-17T10:42:23.326Z,97298.22
2023-01-17T10:45:03.726Z,97296.78
2023-01-17T10:47:36.872Z,97300.84
2023-01-17T10:50:05.387Z,97302.00
2023-01-17T10:52:31.968Z,97300.69
2023-01-17T10:55:18.196Z,97294.84
2023-01-17T10:57:47.808Z,97286.97
2023-01-17T11:00:50.514Z,97298.66
2023-01-17T11:03:23.968Z,97296.13
2023-01-17T11:06:15.418Z,97291.56
2023-01-17T11:09:02.186Z,97284.16
2023-01-17T11:11:32.285Z,97287.47
2023-01-17T11:14:01.192Z,97284.38
2023-01-17T11:16:32.018Z,97287.66
2023-01-17T11:19:16.444Z,97282.09
2023-01-17T11:21:54.935Z,97289.19
2023-01-17T11:24:31.947Z,97290.66
2023-01-17T11:26:58.584Z,97278.31
2023-01-17T11:29:39.639Z,97291.63
2023-01-17T11:32:29.998Z,97294.63
2023-01-17T11:35:17.144Z,97289.91
2023-01-17T11:38:03.102Z,97292.66
2023-01-17T11:40:31.344Z,97292.41
2023-01-17T11:43:20.414Z,97287.00
2023-01-17T11:46:01.516Z,97281.41
2023-01-17T11:48:35.668Z,97280.56
2023-01-17T11:51:03.712Z,97279.06
2023-01-17T11:53:33.328Z,97279.06
2023-01-17T11:56:05.867Z,97291.31
2023-01-17T11:58:42.978Z,97286.84
2023-01-17T12:01:31.064Z,97278.59
2023-01-17T12:04:04.030Z,97281.59
2023-01-17T12:06:58.015Z,97281.41
2023-01-17T12:10:19.193Z,97284.16
2023-01-17T12:13:18.212Z,97280.69
2023-01-17T12:15:45.054Z,97275.06
2023-01-17T12:18:30.248Z,97278.38
2023-01-17T12:21:17.859Z,97277.56
2023-01-17T12:23:58.703Z,97278.69
2023-01-17T12:26:42.127Z,97279.56
2023-01-17T12:29:39.728Z,97281.50
2023-01-17T12:32:12.169Z,97280.22
2023-01-17T12:34:54.193Z,97276.91
2023-01-17T12:37:26.718Z,97274.03
2023-01-17T12:40:16.366Z,97274.06
2023-01-17T12:42:51.133Z,97272.22
2023-01-17T12:45:38.535Z,97265.53
2023-01-17T12:48:10.173Z,97266.88
2023-01-17T12:51:03.995Z,97275.88
2023-01-17T12:53:56.811Z,97273.44
2023-01-17T12:56:36.038Z,97273.22
2023-01-17T12:59:15.876Z,97268.09
2023-01-17T13:01:58.747Z,97280.53
2023-01-17T13:04:58.566Z,97264.63
2023-01-17T13:07:28.894Z,97269.00
2023-01-17T13:10:02.306Z,97268.78
2023-01-17T13:12:32.887Z,97275.81
2023-01-17T13:15:02.130Z,97275.03
2023-01-17T13:17:53.065Z,97274.53
2023-01-17T13:20:32.068Z,97278.94
2023-01-17T13:23:10.640Z,97274.06
2023-01-17T13:25:46.503Z,97259.47
2023-01-17T13:28:43.981Z,97261.66
2023-01-17T13:31:34.063Z,97265.78
2023-01-17T13:34:34.141Z,97270.66
2023-01-17T13:37:20.069Z,97279.84
2023-01-17T13:40:24.096Z,97273.38
2023-01-17T13:42:56.378Z,97283.16
2023-01-17T13:45:28.639Z,97283.19
2023-01-17T13:48:25.803Z,97288.06
2023-01-17T13:51:06.799Z,97287.50
2023-01-17T13:53:36.984Z,97290.53
2023-01-17T13:56:15.535Z,97290.75
2023-01-17T13:58:50.178Z,97300.81
2023-01-17T14:01:22.899Z,97291.63
2023-01-17T14:03:49.966Z,97293.78
2023-01-17T14:06:37.906Z,97293.78
2023-01-17T14:09:52.483Z,97301.09
2023-01-17T14:12:19.032Z,97294.59
2023-01-17T14:14:49.150Z,97299.69
2023-01-17T14:17:28.228Z,97311.34
2023-01-17T14:20:02.317Z,97305.69
2023-01-17T14:22:31.825Z,97297.31
2023-01-17T14:25:17.570Z,97308.13
2023-01-17T14:27:53.553Z,97304.41
2023-01-17T14:30:32.591Z,97298.97
2023-01-17T14:32:59.255Z,97306.97
2023-01-17T14:35:34.437Z,97310.25
2023-01-17T14:38:05.695Z,97316.47
2023-01-17T14:40:34.759Z,97320.00
2023-01-17T14:43:06.160Z,97309.72
2023-01-17T14:45:36.303Z,97319.47
2023-01-17T14:48:06.113Z,97316.44
2023-01-17T14:50:43.706Z,97321.84
2023-01-17T14:53:13.463Z,97323.25
2023-01-17T14:55:55.139Z,97324.31
2023-01-17T14:58:21.760Z,97318.88
2023-01-17T15:00:51.634Z,97326.16
2023-01-17T15:03:18.411Z,97323.97
2023-01-17T15:05:49.979Z,97336.66
2023-01-17T15:08:23.428Z,97333.44
2023-01-17T15:10:55.294Z,97330.47
2023-01-17T15:13:43.411Z,97337.53
2023-01-17T15:16:26.312Z,97341.59
2023-01-17T15:18:54.771Z,97349.19
2023-01-17T15:21:24.098Z,97354.50
2023-01-17T15:23:55.335Z,97360.47
2023-01-17T15:26:26.443Z,97364.25
2023-01-17T15:28:55.602Z,97353.44
2023-01-17T15:31:40.006Z,97362.66
2023-01-17T15:34:16.875Z,97367.78
2023-01-17T15:36:48.634Z,97370.22
2023-01-17T15:39:20.090Z,97374.31
2023-01-17T15:41:50.474Z,97378.00
2023-01-17T15:44:48.506Z,97377.69
2023-01-17T15:47:27.132Z,97378.25
2023-01-17T15:49:53.949Z,97372.66
2023-01-17T15:52:21.571Z,97372.38
2023-01-17T15:54:55.733Z,97364.78
2023-01-17T15:57:27.252Z,97362.28
2023-01-17T16:00:08.678Z,97365.19
2023-01-17T16:02:35.387Z,97369.81
2023-01-17T16:05:22.315Z,97375.31
2023-01-17T16:07:53.848Z,97378.19
2023-01-17T16:10:23.960Z,97379.47
2023-01-17T16:12:54.039Z,97376.97
2023-01-17T16:15:22.137Z,97377.72
2023-01-17T16:17:52.924Z,97377.16
2023-01-17T16:20:23.569Z,97383.00
2023-01-17T16:22:50.920Z,97383.56
2023-01-17T16:25:23.895Z,97385.09
2023-01-17T16:27:52.421Z,97388.03
2023-01-17T16:30:21.679Z,97397.69
2023-01-17T16:32:49.218Z,97392.00
2023-01-17T16:35:22.927Z,97391.34
2023-01-17T16:37:54.561Z,97393.59
2023-01-17T16:40:24.647Z,97394.56
2023-01-17T16:42:51.572Z,97397.41
2023-01-17T16:45:19.245Z,97407.72
2023-01-17T16:47:48.047Z,97403.63
2023-01-17T16:50:18.972Z,97406.56
2023-01-17T16:52:45.617Z,97408.13
2023-01-17T16:55:15.371Z,97406.72
2023-01-17T16:57:42.485Z,97408.31
2023-01-17T17:00:12.184Z,97414.47
2023-01-17T17:02:40.920Z,97420.59
2023-01-17T17:05:09.555Z,97426.47
2023-01-17T17:07:42.872Z,97432.84
2023-01-17T17:10:15.246Z,97430.50
2023-01-17T17:12:42.229Z,97436.34
2023-01-17T17:15:10.641Z,97430.06
2023-01-17T17:17:38.823Z,97440.56
2023-01-17T17:20:06.677Z,97436.44
2023-01-17T17:22:33.498Z,97439.13
2023-01-17T17:25:00.143Z,97430.94
2023-01-17T17:27:27.876Z,97455.41
2023-01-17T17:29:55.368Z,97450.38
2023-01-17T17:32:22.031Z,97448.56
2023-01-17T17:34:50.827Z,97453.88
2023-01-17T17:37:18.283Z,97441.31
2023-01-17T17:39:45.358Z,97444.34
2023-01-17T17:42:12.666Z,97454.47
2023-01-17T17:44:39.319Z,97454.66
2023-01-17T17:47:05.929Z,97456.13
2023-01-17T17:49:32.830Z,97459.50
2023-01-17T17:52:07.309Z,97465.94
2023-01-17T17:54:34.908Z,97467.66
2023-01-17T17:57:01.728Z,97468.72
2023-01-17T17:59:29.593Z,97468.94
2023-01-17T18:01:56.262Z,97475.75
2023-01-17T18:04:23.005Z,97476.31
2023-01-17T18:06:49.820Z,97476.00
2023-01-17T18:09:16.550Z,97473.88
2023-01-17T18:11:44.107Z,97479.50
2023-01-17T18:14:13.839Z,97477.97
2023-01-17T18:16:42.682Z,97488.03
2023-01-17T18:19:14.588Z,97494.88
2023-01-17T18:21:42.067Z,97502.00
2023-01-17T18:24:13.688Z,97492.84
2023-01-17T18:26:45.379Z,97496.69
2023-01-17T18:29:17.909Z,97497.22
2023-01-17T18:31:45.842Z,97499.72
2023-01-17T18:34:15.415Z,97505.41
2023-01-17T18:36:43.190Z,97500.19
2023-01-17T18:39:21.709Z,97502.63
2023-01-17T18:41:49.421Z,97500.19
2023-01-17T18:44:16.366Z,97496.91
2023-01-17T18:46:43.354Z,97498.31
2023-01-17T18:49:15.426Z,97502.97
2023-01-17T18:51:46.623Z,97505.66
2023-01-17T18:54:13.680Z,97511.06
2023-01-17T18:56:40.595Z,97512.53
2023-01-17T18:59:07.386Z,97518.34
2023-01-17T19:01:36.369Z,97523.06
2023-01-17T19:04:05.423Z,97525.34
2023-01-17T19:06:35.843Z,97543.25
2023-01-17T19:09:04.138Z,97529.13
2023-01-17T19:11:30.858Z,97537.28
2023-01-17T19:13:57.569Z,97541.41
2023-01-17T19:16:29.846Z,97537.06
2023-01-17T19:19:01.718Z,97541.41
2023-01-17T19:21:29.031Z,97538.91
2023-01-17T19:23:56.708Z,97539.44
2023-01-17T19:26:27.110Z,97533.22
2023-01-17T19:28:56.192Z,97540.25
2023-01-17T19:31:25.722Z,97529.38
2023-01-17T19:33:54.535Z,97534.69
2023-01-17T19:36:24.196Z,97534.25
2023-01-17T19:39:03.372Z,97536.63
2023-01-17T19:41:32.196Z,97552.47
2023-01-17T19:44:05.062Z,97548.38
2023-01-17T19:46:32.478Z,97542.41
2023-01-17T19:48:59.712Z,97552.63
2023-01-17T19:51:26.969Z,97558.41
2023-01-17T19:53:54.334Z,97564.78
2023-01-17T19:56:25.845Z,97566.22
2023-01-17T19:58:52.591Z,97560.81
2023-01-17T20:01:22.440Z,97567.84
2023-01-17T20:03:50.221Z,97567.34
2023-01-17T20:06:22.926Z,97560.22
2023-01-17T20:08:49.944Z,97562.81
2023-01-17T20:11:21.807Z,97563.69
2023-01-17T20:13:51.187Z,97562.75
2023-01-17T20:16:18.153Z,97562.09
2023-01-17T20:18:45.737Z,97565.97
2023-01-17T20:21:14.454Z,97560.56
2023-01-17T20:23:43.073Z,97571.00
2023-01-17T20:26:11.880Z,97572.78
2023-01-17T20:28:39.986Z,97562.25
2023-01-17T20:31:12.784Z,97572.63
2023-01-17T20:33:40.755Z,97577.19
2023-01-17T20:36:11.292Z,97573.47
2023-01-17T20:38:44.806Z,97577.19
2023-01-17T20:41:17.656Z,97574.50
2023-01-17T20:43:46.874Z,97582.59
2023-01-17T20:46:14.264Z,97578.50
2023-01-17T20:48:55.175Z,97569.38
2023-01-17T20:51:23.360Z,97561.75
2023-01-17T20:53:57.361Z,97567.75
2023-01-17T20:56:24.725Z,97576.16
2023-01-17T20:58:55.234Z,97576.16
2023-01-17T21:01:22.800Z,97573.47
2023-01-17T21:03:51.732Z,97574.50
2023-01-17T21:06:20.186Z,97576.03
2023-01-17T21:08:48.046Z,97576.03
2023-01-17T21:11:17.604Z,97581.91
2023-01-17T21:13:44.585Z,97579.69
2023-01-17T21:16:16.870Z,97578.16
2023-01-17T21:18:49.980Z,97581.41
2023-01-17T21:21:21.922Z,97580.03
2023-01-17T21:23:49.980Z,97575.94
2023-01-17T21:26:17.740Z,97576.31
2023-01-17T21:28:46.501Z,97574.75
2023-01-17T21:31:24.440Z,97579.22
2023-01-17T21:33:56.635Z,97572.22
2023-01-17T21:36:25.735Z,97575.38
2023-01-17T21:38:56.938Z,97580.19
2023-01-17T21:41:26.615Z,97580.53
2023-01-17T21:43:57.769Z,97572.34
2023-01-17T21:46:25.112Z,97572.34
2023-01-17T21:48:51.847Z,97571.75
2023-01-17T21:51:22.105Z,97570.00
2023-01-17T21:53:49.310Z,97572.56
2023-01-17T21:56:35.400Z,97582.28
2023-01-17T21:59:02.231Z,97582.63
2023-01-17T22:01:32.365Z,97587.09
2023-01-17T22:04:03.024Z,97578.75
2023-01-17T22:06:41.105Z,97573.63
2023-01-17T22:09:08.417Z,97575.72
2023-01-17T22:11:36.949Z,97581.09
2023-01-17T22:14:04.712Z,97580.03
2023-01-17T22:16:31.302Z,97573.38
2023-01-17T22:18:58.458Z,97574.66
2023-01-17T22:21:28.241Z,97573.03
2023-01-17T22:23:59.605Z,97578.06
2023-01-17T22:26:29.441Z,97581.72
2023-01-17T22:28:59.524Z,97575.25
2023-01-17T22:31:28.123Z,97571.25
2023-01-17T22:33:57.676Z,97573.13
2023-01-17T22:36:25.347Z,97583.78
2023-01-17T22:38:52.876Z,97581.91
2023-01-17T22:41:23.476Z,97585.09
2023-01-17T22:43:53.022Z,97587.56
2023-01-17T22:46:30.772Z,97593.75
2023-01-17T22:48:58.110Z,97581.81
2023-01-17T22:51:27.020Z,97578.41
2023-01-17T22:53:58.795Z,97583.34
2023-01-17T22:56:28.256Z,97583.91
2023-01-17T22:58:55.711Z,97584.50
2023-01-17T23:01:27.964Z,97584.50
2023-01-17T23:03:59.904Z,97586.59
2023-01-17T23:06:31.357Z,97582.84
2023-01-17T23:09:00.196Z,97586.84
2023-01-17T23:11:41.807Z,97592.94
2023-01-17T23:14:12.317Z,97589.31
2023-01-17T23:16:59.802Z,97581.81
2023-01-17T23:19:29.490Z,97595.28
2023-01-17T23:22:17.377Z,97588.50
2023-01-17T23:24:46.088Z,97579.47
2023-01-17T23:27:34.071Z,97584.50
2023-01-17T23:30:02.334Z,97585.34
2023-01-17T23:32:29.483Z,97582.88
2023-01-17T23:34:56.312Z,97574.78
2023-01-17T23:37:47.572Z,97574.44
2023-01-17T23:40:15.190Z,97584.38
2023-01-17T23:43:00.284Z,97579.72
2023-01-17T23:45:27.667Z,97588.59
2023-01-17T23:47:55.162Z,97584.75
2023-01-17T23:50:21.922Z,97584.75
2023-01-17T23:52:48.640Z,97596.69
2023-01-17T23:55:15.707Z,97596.09
2023-01-17T23:57:42.470Z,97588.50
